createdAt,value
2023-03-01T00:01:13.439Z,98828.19
2023-03-01T00:03:40.641Z,98833.16
2023-03-01T00:06:07.885Z,98830.03
2023-03-01T00:08:35.734Z,98824.22
2023-03-01T00:11:08.683Z,98824.59
2023-03-01T00:13:36.698Z,98830.72
2023-03-01T00:16:09.368Z,98820.69
2023-03-01T00:18:36.728Z,98826.97
2023-03-01T00:21:04.102Z,98832.22
2023-03-01T00:23:31.259Z,98828.34
2023-03-01T00:25:58.621Z,98825.66
2023-03-01T00:28:25.850Z,98833.06
2023-03-01T00:30:53.147Z,98838.34
2023-03-01T00:33:20.442Z,98828.34
2023-03-01T00:35:48.482Z,98826.91
2023-03-01T00:38:15.628Z,98827.66
2023-03-01T00:40:42.835Z,98824.44
2023-03-01T00:43:10.153Z,98816.44
2023-03-01T00:45:37.789Z,98805.06
2023-03-01T00:48:06.288Z,98794.41
2023-03-01T00:50:34.399Z,98804.38
2023-03-01T00:53:01.610Z,98808.88
2023-03-01T00:55:28.851Z,98800.47
2023-03-01T00:57:55.966Z,98798.97
2023-03-01T01:00:23.145Z,98793.56
2023-03-01T01:02:50.579Z,98777.50
2023-03-01T01:05:21.897Z,98785.53
2023-03-01T01:07:49.633Z,98789.25
2023-03-01T01:10:18.109Z,98789.13
2023-03-01T01:12:48.160Z,98780.28
2023-03-01T01:15:17.674Z,98774.47
2023-03-01T01:17:44.925Z,98772.41
2023-03-01T01:20:13.362Z,98780.59
2023-03-01T01:22:40.426Z,98785.78
2023-03-01T01:25:07.911Z,98777.13
2023-03-01T01:27:35.073Z,98775.44
2023-03-01T01:30:02.246Z,98771.78
2023-03-01T01:32:29.407Z,98769.41
2023-03-01T01:34:56.725Z,98776.59
2023-03-01T01:37:23.910Z,98780.28
2023-03-01T01:39:50.996Z,98782.88
2023-03-01T01:42:19.564Z,98773.69
2023-03-01T01:44:48.378Z,98773.69
2023-03-01T01:47:18.275Z,98771.34
2023-03-01T01:49:55.753Z,98769.91
2023-03-01T01:52:28.062Z,98772.41
2023-03-01T01:55:06.655Z,98772.41
2023-03-01T01:57:40.016Z,98770.47
2023-03-01T02:00:14.417Z,98765.91
2023-03-01T02:02:44.051Z,98762.56
2023-03-01T02:05:27.571Z,98765.25
2023-03-01T02:07:54.812Z,98771.25
2023-03-01T02:10:24.530Z,98766.81
2023-03-01T02:12:53.050Z,98760.41
2023-03-01T02:15:20.465Z,98766.19
2023-03-01T02:17:47.818Z,98765.00
2023-03-01T02:20:24.035Z,98763.31
2023-03-01T02:22:51.683Z,98757.38
2023-03-01T02:25:19.354Z,98755.38
2023-03-01T02:28:06.545Z,98753.72
2023-03-01T02:30:34.796Z,98758.06
2023-03-01T02:33:04.470Z,98770.47
2023-03-01T02:35:38.777Z,98768.81
2023-03-01T02:38:10.051Z,98770.03
2023-03-01T02:40:40.600Z,98764.63
2023-03-01T02:43:11.398Z,98758.50
2023-03-01T02:45:49.082Z,98766.75
2023-03-01T02:48:16.169Z,98773.03
2023-03-01T02:50:56.418Z,98787.50
2023-03-01T02:53:31.491Z,98786.44
2023-03-01T02:55:58.608Z,98781.84
2023-03-01T02:58:26.173Z,98788.72
2023-03-01T03:00:53.931Z,98781.41
2023-03-01T03:03:23.178Z,98787.81
2023-03-01T03:05:50.301Z,98781.56
2023-03-01T03:08:25.416Z,98789.88
2023-03-01T03:10:54.125Z,98791.41
2023-03-01T03:13:23.181Z,98782.63
2023-03-01T03:15:51.041Z,98785.28
2023-03-01T03:18:18.522Z,98788.91
2023-03-01T03:20:46.382Z,98787.56
2023-03-01T03:23:13.795Z,98788.81
2023-03-01T03:25:40.851Z,98782.56
2023-03-01T03:28:11.720Z,98778.72
2023-03-01T03:30:41.661Z,98769.13
2023-03-01T03:33:12.994Z,98778.22
2023-03-01T03:35:47.297Z,98781.56
2023-03-01T03:38:20.155Z,98791.41
2023-03-01T03:41:03.390Z,98790.03
2023-03-01T03:43:33.231Z,98778.09
2023-03-01T03:46:00.332Z,98773.47
2023-03-01T03:48:27.892Z,98766.75
2023-03-01T03:50:57.019Z,98762.88
2023-03-01T03:53:26.856Z,98761.56
2023-03-01T03:55:55.035Z,98762.03
2023-03-01T03:58:24.887Z,98757.38
2023-03-01T04:00:56.743Z,98757.69
2023-03-01T04:03:25.993Z,98749.28
2023-03-01T04:05:53.926Z,98743.19
2023-03-01T04:08:23.382Z,98739.97
2023-03-01T04:10:59.336Z,98737.00
2023-03-01T04:13:26.691Z,98735.47
2023-03-01T04:15:55.005Z,98732.44
2023-03-01T04:18:25.659Z,98728.09
2023-03-01T04:20:56.522Z,98729.75
2023-03-01T04:23:23.822Z,98731.19
2023-03-01T04:25:54.867Z,98725.78
2023-03-01T04:28:29.256Z,98731.19
2023-03-01T04:30:58.653Z,98735.56
2023-03-01T04:33:26.782Z,98741.16
2023-03-01T04:35:53.989Z,98758.19
2023-03-01T04:38:22.454Z,98761.91
2023-03-01T04:40:49.683Z,98761.47
2023-03-01T04:43:16.792Z,98760.28
2023-03-01T04:45:44.312Z,98753.53
2023-03-01T04:48:11.502Z,98752.19
2023-03-01T04:50:38.646Z,98748.66
2023-03-01T04:53:05.723Z,98754.47
2023-03-01T04:55:32.834Z,98744.78
2023-03-01T04:58:00.110Z,98747.13
2023-03-01T05:00:27.401Z,98743.34
2023-03-01T05:02:57.449Z,98750.34
2023-03-01T05:05:28.620Z,98742.88
2023-03-01T05:07:57.834Z,98745.00
2023-03-01T05:10:26.438Z,98749.03
2023-03-01T05:12:54.178Z,98748.13
2023-03-01T05:15:22.891Z,98742.63
2023-03-01T05:17:50.889Z,98741.81
2023-03-01T05:20:18.619Z,98748.00
2023-03-01T05:22:45.756Z,98741.03
2023-03-01T05:25:15.083Z,98739.28
2023-03-01T05:27:42.387Z,98738.72
2023-03-01T05:30:16.938Z,98734.63
2023-03-01T05:32:50.075Z,98735.78
2023-03-01T05:35:19.005Z,98741.09
2023-03-01T05:37:50.572Z,98749.28
2023-03-01T05:40:20.330Z,98747.97
2023-03-01T05:42:50.456Z,98750.03
2023-03-01T05:45:18.818Z,98752.31
2023-03-01T05:47:47.668Z,98742.94
2023-03-01T05:50:26.911Z,98743.03
2023-03-01T05:53:00.695Z,98741.19
2023-03-01T05:55:29.599Z,98745.31
2023-03-01T05:57:58.839Z,98745.16
2023-03-01T06:00:26.140Z,98741.06
2023-03-01T06:02:55.120Z,98743.88
2023-03-01T06:05:23.355Z,98756.69
2023-03-01T06:07:51.364Z,98752.28
2023-03-01T06:10:20.952Z,98743.25
2023-03-01T06:12:48.126Z,98749.34
2023-03-01T06:15:16.872Z,98762.56
2023-03-01T06:17:45.841Z,98757.97
2023-03-01T06:20:17.354Z,98753.84
2023-03-01T06:22:45.013Z,98753.16
2023-03-01T06:25:14.075Z,98755.50
2023-03-01T06:27:41.316Z,98755.22
2023-03-01T06:30:11.065Z,98750.34
2023-03-01T06:32:41.615Z,98745.97
2023-03-01T06:35:11.611Z,98746.53
2023-03-01T06:37:39.451Z,98729.50
2023-03-01T06:40:12.579Z,98741.97
2023-03-01T06:42:42.097Z,98734.75
2023-03-01T06:45:10.559Z,98746.22
2023-03-01T06:47:37.728Z,98744.56
2023-03-01T06:50:05.221Z,98743.53
2023-03-01T06:52:32.730Z,98750.91
2023-03-01T06:55:00.250Z,98735.22
2023-03-01T06:57:27.679Z,98732.75
2023-03-01T06:59:54.810Z,98731.25
2023-03-01T07:02:21.942Z,98745.13
2023-03-01T07:04:53.532Z,98749.47
2023-03-01T07:07:21.137Z,98751.00
2023-03-01T07:09:50.049Z,98750.09
2023-03-01T07:12:17.501Z,98747.94
2023-03-01T07:14:45.729Z,98738.88
2023-03-01T07:17:12.956Z,98745.22
2023-03-01T07:19:40.244Z,98744.84
2023-03-01T07:22:08.976Z,98757.22
2023-03-01T07:24:36.075Z,98767.41
2023-03-01T07:27:03.233Z,98766.28
2023-03-01T07:29:30.708Z,98763.78
2023-03-01T07:31:57.978Z,98762.53
2023-03-01T07:34:25.473Z,98770.31
2023-03-01T07:36:52.583Z,98765.53
2023-03-01T07:39:19.845Z,98758.09
2023-03-01T07:41:47.055Z,98743.13
2023-03-01T07:44:14.148Z,98755.22
2023-03-01T07:46:41.238Z,98752.16
2023-03-01T07:49:08.465Z,98755.06
2023-03-01T07:51:35.561Z,98756.50
2023-03-01T07:54:02.871Z,98744.84
2023-03-01T07:56:30.667Z,98738.72
2023-03-01T07:59:00.346Z,98742.06
2023-03-01T08:01:27.455Z,98746.03
2023-03-01T08:03:54.618Z,98746.19
2023-03-01T08:06:21.759Z,98753.66
2023-03-01T08:08:48.866Z,98747.72
2023-03-01T08:11:16.563Z,98754.31
2023-03-01T08:13:44.588Z,98738.63
2023-03-01T08:16:14.619Z,98751.09
2023-03-01T08:18:42.287Z,98747.63
2023-03-01T08:21:12.467Z,98742.34
2023-03-01T08:23:40.144Z,98742.88
2023-03-01T08:26:25.082Z,98751.72
2023-03-01T08:28:52.335Z,98741.75
2023-03-01T08:31:23.930Z,98756.22
2023-03-01T08:33:56.594Z,98755.53
2023-03-01T08:36:32.421Z,98748.75
2023-03-01T08:39:00.202Z,98751.09
2023-03-01T08:41:28.126Z,98743.47
2023-03-01T08:43:59.823Z,98753.00
2023-03-01T08:46:33.024Z,98745.97
2023-03-01T08:49:00.641Z,98737.03
2023-03-01T08:51:28.116Z,98745.81
2023-03-01T08:53:55.282Z,98747.50
2023-03-01T08:56:22.452Z,98755.09
2023-03-01T08:58:50.592Z,98741.44
2023-03-01T09:01:19.829Z,98742.31
2023-03-01T09:03:47.394Z,98735.59
2023-03-01T09:06:15.628Z,98747.75
2023-03-01T09:08:45.542Z,98741.38
2023-03-01T09:11:16.529Z,98739.63
2023-03-01T09:13:44.881Z,98751.38
2023-03-01T09:16:14.262Z,98752.63
2023-03-01T09:18:41.773Z,98747.69
2023-03-01T09:21:11.550Z,98741.66
2023-03-01T09:23:43.479Z,98748.84
2023-03-01T09:26:17.632Z,98748.84
2023-03-01T09:28:47.528Z,98753.69
2023-03-01T09:31:15.677Z,98750.22
2023-03-01T09:33:44.135Z,98744.41
2023-03-01T09:36:17.074Z,98760.25
2023-03-01T09:38:44.620Z,98751.56
2023-03-01T09:41:50.472Z,98757.28
2023-03-01T09:44:41.694Z,98748.88
2023-03-01T10:18:24.860Z,98721.84
2023-03-01T10:20:56.724Z,98721.69
2023-03-01T10:23:29.276Z,98719.03
2023-03-01T10:26:16.006Z,98709.47
2023-03-01T10:28:54.903Z,98707.28
2023-03-01T10:31:30.560Z,98712.31
2023-03-01T10:33:59.140Z,98700.06
2023-03-01T10:36:26.276Z,98695.66
2023-03-01T10:38:56.452Z,98693.44
2023-03-01T10:41:26.226Z,98695.06
2023-03-01T10:43:59.282Z,98691.72
2023-03-01T10:46:38.468Z,98688.25
2023-03-01T10:49:22.433Z,98687.06
2023-03-01T10:51:52.625Z,98684.34
2023-03-01T10:54:21.171Z,98682.91
2023-03-01T10:57:27.510Z,98684.69
2023-03-01T11:00:20.864Z,98673.69
2023-03-01T11:03:03.082Z,98668.91
2023-03-01T11:05:31.613Z,98673.78
2023-03-01T11:08:00.634Z,98676.28
2023-03-01T11:10:38.308Z,98665.25
2023-03-01T11:13:14.234Z,98665.88
2023-03-01T11:15:42.081Z,98662.19
2023-03-01T11:18:34.058Z,98660.59
2023-03-01T11:21:09.846Z,98661.50
2023-03-01T11:23:40.303Z,98661.22
2023-03-01T11:26:12.433Z,98649.31
2023-03-01T11:28:43.825Z,98636.69
2023-03-01T11:31:16.642Z,98630.47
2023-03-01T11:34:11.397Z,98631.78
2023-03-01T11:36:48.010Z,98617.06
2023-03-01T11:39:28.443Z,98619.53
2023-03-01T11:42:18.615Z,98623.06
2023-03-01T11:44:50.967Z,98606.84
2023-03-01T11:47:45.323Z,98608.81
2023-03-01T11:50:42.194Z,98613.56
2023-03-01T11:53:30.560Z,98609.09
2023-03-01T11:56:25.675Z,98617.97
2023-03-01T11:59:04.152Z,98614.66
2023-03-01T12:01:42.936Z,98602.03
2023-03-01T12:04:31.868Z,98608.19
2023-03-01T12:07:02.234Z,98606.22
2023-03-01T12:09:39.647Z,98605.13
2023-03-01T12:12:43.850Z,98591.41
2023-03-01T12:15:25.826Z,98592.91
2023-03-01T12:18:14.097Z,98595.47
2023-03-01T12:21:00.949Z,98587.66
2023-03-01T12:23:52.152Z,98593.44
2023-03-01T12:26:32.396Z,98593.56
2023-03-01T12:29:43.530Z,98588.00
2023-03-01T12:32:32.889Z,98590.03
2023-03-01T12:35:23.564Z,98586.50
2023-03-01T12:38:13.516Z,98582.44
2023-03-01T12:41:16.349Z,98586.06
2023-03-01T12:44:17.561Z,98591.09
2023-03-01T12:47:13.795Z,98588.09
2023-03-01T12:49:47.633Z,98586.63
2023-03-01T12:52:19.401Z,98580.78
2023-03-01T12:54:48.376Z,98573.06
2023-03-01T12:57:44.033Z,98577.34
2023-03-01T13:00:17.024Z,98576.84
2023-03-01T13:03:12.062Z,98582.34
2023-03-01T13:06:17.034Z,98584.31
2023-03-01T13:08:55.241Z,98581.63
2023-03-01T13:11:24.048Z,98582.00
2023-03-01T13:13:52.792Z,98581.25
2023-03-01T13:16:23.398Z,98589.59
2023-03-01T13:18:50.728Z,98584.94
2023-03-01T13:21:32.111Z,98586.41
2023-03-01T13:23:59.378Z,98597.69
2023-03-01T13:26:26.536Z,98598.88
2023-03-01T13:28:58.590Z,98595.00
2023-03-01T13:31:28.355Z,98592.78
2023-03-01T13:33:57.067Z,98593.00
2023-03-01T13:36:30.612Z,98590.97
2023-03-01T13:39:00.352Z,98581.78
2023-03-01T13:41:42.671Z,98582.88
2023-03-01T13:44:21.509Z,98577.97
2023-03-01T13:46:49.834Z,98582.06
2023-03-01T13:49:21.052Z,98584.00
2023-03-01T13:51:49.641Z,98592.28
2023-03-01T13:54:22.106Z,98589.97
2023-03-01T13:56:49.284Z,98586.09
2023-03-01T13:59:19.542Z,98586.06
2023-03-01T14:01:54.352Z,98591.94
2023-03-01T14:04:25.409Z,98588.66
2023-03-01T14:06:53.082Z,98591.66
2023-03-01T14:09:26.113Z,98593.31
2023-03-01T14:12:17.777Z,98587.47
2023-03-01T14:15:16.646Z,98586.50
2023-03-01T14:17:55.273Z,98576.00
2023-03-01T14:20:25.874Z,98582.13
2023-03-01T14:23:10.220Z,98577.25
2023-03-01T14:25:39.992Z,98580.47
2023-03-01T14:28:22.790Z,98581.41
2023-03-01T14:30:55.277Z,98580.84
2023-03-01T14:33:24.270Z,98580.28
2023-03-01T14:36:12.125Z,98577.97
2023-03-01T14:38:47.216Z,98575.06
2023-03-01T14:41:17.404Z,98578.91
2023-03-01T14:44:08.024Z,98570.63
2023-03-01T14:46:40.434Z,98575.81
2023-03-01T14:49:11.622Z,98584.31
2023-03-01T14:51:40.432Z,98585.56
2023-03-01T14:54:25.266Z,98581.59
2023-03-01T14:56:53.883Z,98574.72
2023-03-01T14:59:25.061Z,98577.97
2023-03-01T15:01:56.332Z,98582.09
2023-03-01T15:04:26.018Z,98578.25
2023-03-01T15:06:55.401Z,98580.13
2023-03-01T15:09:23.827Z,98574.44
2023-03-01T15:11:51.028Z,98576.06
2023-03-01T15:14:47.366Z,98571.13
2023-03-01T15:17:31.858Z,98575.34
2023-03-01T15:19:59.782Z,98579.00
2023-03-01T15:22:28.358Z,98569.28
2023-03-01T15:24:56.227Z,98576.31
2023-03-01T15:27:26.131Z,98576.31
2023-03-01T15:30:01.666Z,98568.13
2023-03-01T15:32:32.862Z,98560.25
2023-03-01T15:35:01.370Z,98562.81
2023-03-01T15:37:50.177Z,98558.38
2023-03-01T15:40:32.426Z,98561.53
2023-03-01T15:43:05.738Z,98566.13
2023-03-01T15:45:38.400Z,98571.94
2023-03-01T15:48:16.206Z,98568.41
2023-03-01T15:50:44.954Z,98570.53
2023-03-01T15:53:15.517Z,98572.84
2023-03-01T15:55:46.729Z,98566.38
2023-03-01T15:58:21.961Z,98573.81
2023-03-01T16:01:00.945Z,98579.88
2023-03-01T16:03:29.280Z,98573.34
2023-03-01T16:05:56.559Z,98580.56
2023-03-01T16:08:23.619Z,98584.81
2023-03-01T16:10:52.556Z,98584.88
2023-03-01T16:13:20.500Z,98581.25
2023-03-01T16:15:48.058Z,98577.81
2023-03-01T16:18:15.555Z,98584.31
2023-03-01T16:20:42.851Z,98583.22
2023-03-01T16:23:11.919Z,98590.56
2023-03-01T16:25:39.101Z,98588.72
2023-03-01T16:28:10.257Z,98586.50
2023-03-01T16:30:40.687Z,98591.47
2023-03-01T16:33:31.160Z,98588.25
2023-03-01T16:35:56.519Z,98596.72
2023-03-01T16:38:23.820Z,98601.00
2023-03-01T16:40:53.042Z,98612.81
2023-03-01T16:43:20.391Z,98601.53
2023-03-01T16:45:47.771Z,98602.38
2023-03-01T16:48:14.992Z,98607.53
2023-03-01T16:50:42.200Z,98604.91
2023-03-01T16:53:09.853Z,98605.59
2023-03-01T16:55:37.071Z,98609.75
2023-03-01T16:58:05.525Z,98611.59
2023-03-01T17:00:32.660Z,98611.16
2023-03-01T17:02:59.871Z,98614.84
2023-03-01T17:05:27.190Z,98611.41
2023-03-01T17:07:56.722Z,98617.88
2023-03-01T17:10:23.963Z,98618.94
2023-03-01T17:12:51.423Z,98618.59
2023-03-01T17:15:19.063Z,98620.09
2023-03-01T17:17:46.206Z,98624.69
2023-03-01T17:20:13.784Z,98610.94
2023-03-01T17:22:41.093Z,98611.47
2023-03-01T17:25:12.235Z,98617.16
2023-03-01T17:27:40.267Z,98621.38
2023-03-01T17:30:12.009Z,98629.22
2023-03-01T17:32:39.520Z,98631.25
2023-03-01T17:35:08.314Z,98634.47
2023-03-01T17:37:37.201Z,98632.97
2023-03-01T17:40:04.836Z,98620.28
2023-03-01T17:42:33.045Z,98616.00
2023-03-01T17:45:00.889Z,98605.97
2023-03-01T17:47:28.153Z,98606.69
2023-03-01T17:49:55.788Z,98613.06
2023-03-01T17:52:24.027Z,98608.69
2023-03-01T17:54:51.354Z,98612.56
2023-03-01T17:57:18.654Z,98604.66
2023-03-01T17:59:45.805Z,98602.88
2023-03-01T18:02:13.852Z,98605.88
2023-03-01T18:04:41.021Z,98601.22
2023-03-01T18:07:08.141Z,98608.53
2023-03-01T18:09:35.341Z,98608.31
2023-03-01T18:12:02.518Z,98608.91
2023-03-01T18:14:34.225Z,98614.44
2023-03-01T18:17:06.751Z,98603.84
2023-03-01T18:19:33.927Z,98605.75
2023-03-01T18:22:01.050Z,98601.09
2023-03-01T18:24:28.144Z,98603.47
2023-03-01T18:26:55.751Z,98600.81
2023-03-01T18:29:23.063Z,98598.78
2023-03-01T18:31:50.423Z,98604.78
2023-03-01T18:34:17.730Z,98600.28
2023-03-01T18:37:00.618Z,98612.09
2023-03-01T18:39:32.318Z,98603.53
2023-03-01T18:41:59.639Z,98605.06
2023-03-01T18:44:26.814Z,98603.94
2023-03-01T18:46:53.968Z,98608.56
2023-03-01T18:49:21.199Z,98617.75
2023-03-01T18:51:48.254Z,98610.56
2023-03-01T18:54:15.548Z,98604.44
2023-03-01T18:56:43.224Z,98614.50
2023-03-01T18:59:10.569Z,98608.69
2023-03-01T19:01:38.284Z,98603.84
2023-03-01T19:04:06.282Z,98611.56
2023-03-01T19:06:35.504Z,98617.09
2023-03-01T19:09:03.841Z,98612.44
2023-03-01T19:11:33.516Z,98612.09
2023-03-01T19:14:01.728Z,98617.38
2023-03-01T19:16:31.651Z,98617.25
2023-03-01T19:19:01.826Z,98617.97
2023-03-01T19:21:31.905Z,98616.69
2023-03-01T19:24:02.511Z,98623.56
2023-03-01T19:26:31.203Z,98617.44
2023-03-01T19:28:59.002Z,98616.94
2023-03-01T19:31:29.473Z,98621.41
2023-03-01T19:34:15.969Z,98618.09
2023-03-01T19:36:44.543Z,98624.66
2023-03-01T19:39:13.900Z,98628.19
2023-03-01T19:41:42.058Z,98622.25
2023-03-01T19:44:09.667Z,98619.13
2023-03-01T19:46:37.435Z,98615.63
2023-03-01T19:49:05.155Z,98611.09
2023-03-01T19:51:35.668Z,98607.41
2023-03-01T19:54:04.082Z,98605.84
2023-03-01T19:56:31.832Z,98603.06
2023-03-01T19:59:03.244Z,98586.88
2023-03-01T20:01:32.318Z,98587.69
2023-03-01T20:03:59.406Z,98590.94
2023-03-01T20:06:26.617Z,98601.97
2023-03-01T20:08:53.729Z,98597.81
2023-03-01T20:11:21.535Z,98598.06
2023-03-01T20:13:48.709Z,98595.66
2023-03-01T20:16:18.468Z,98596.66
2023-03-01T20:18:45.956Z,98593.34
2023-03-01T20:21:23.508Z,98592.16
2023-03-01T20:23:52.661Z,98598.63
2023-03-01T20:26:21.119Z,98596.53
2023-03-01T20:28:50.538Z,98601.72
2023-03-01T20:31:20.308Z,98602.16
2023-03-01T20:33:47.831Z,98602.06
2023-03-01T20:36:15.765Z,98605.41
2023-03-01T20:38:43.022Z,98599.31
2023-03-01T20:41:13.231Z,98609.00
2023-03-01T20:43:42.410Z,98601.97
2023-03-01T20:46:13.657Z,98605.69
2023-03-01T20:48:45.113Z,98593.31
2023-03-01T20:51:13.451Z,98601.13
2023-03-01T20:53:40.756Z,98611.13
2023-03-01T20:56:13.766Z,98600.75
2023-03-01T20:58:41.742Z,98601.81
2023-03-01T21:01:09.753Z,98593.19
2023-03-01T21:03:37.138Z,98583.31
2023-03-01T21:06:06.413Z,98581.34
2023-03-01T21:08:35.002Z,98585.34
2023-03-01T21:11:07.484Z,98584.56
2023-03-01T21:13:35.042Z,98589.56
2023-03-01T21:16:07.814Z,98597.06
2023-03-01T21:18:37.020Z,98587.00
2023-03-01T21:21:13.329Z,98593.00
2023-03-01T21:23:41.912Z,98597.22
2023-03-01T21:26:19.520Z,98592.09
2023-03-01T21:28:47.983Z,98595.28
2023-03-01T21:31:23.780Z,98591.25
2023-03-01T21:33:53.277Z,98593.50
2023-03-01T21:36:21.952Z,98593.81
2023-03-01T21:38:50.094Z,98592.78
2023-03-01T21:41:23.078Z,98598.09
2023-03-01T21:43:52.236Z,98596.47
2023-03-01T21:46:21.529Z,98593.28
2023-03-01T21:48:50.225Z,98596.19
2023-03-01T21:51:19.546Z,98593.88
2023-03-01T21:53:47.003Z,98583.72
2023-03-01T21:56:19.320Z,98581.09
2023-03-01T21:58:46.585Z,98587.44
2023-03-01T22:01:19.624Z,98592.16
2023-03-01T22:03:46.853Z,98590.66
2023-03-01T22:06:19.723Z,98588.31
2023-03-01T22:08:57.171Z,98587.31
2023-03-01T22:11:26.325Z,98588.31
2023-03-01T22:13:55.733Z,98580.44
2023-03-01T22:16:26.294Z,98583.59
2023-03-01T22:18:53.509Z,98576.97
2023-03-01T22:21:21.496Z,98579.66
2023-03-01T22:23:48.901Z,98576.13
2023-03-01T22:26:27.163Z,98576.81
2023-03-01T22:28:55.824Z,98583.06
2023-03-01T22:31:23.300Z,98582.56
2023-03-01T22:33:51.456Z,98571.59
2023-03-01T22:36:19.012Z,98574.94
2023-03-01T22:38:46.660Z,98577.38
2023-03-01T22:41:14.062Z,98578.22
2023-03-01T22:43:41.249Z,98585.53
2023-03-01T22:46:17.681Z,98583.94
2023-03-01T22:48:45.941Z,98576.31
2023-03-01T22:51:21.382Z,98569.91
2023-03-01T22:53:49.028Z,98573.69
2023-03-01T22:56:22.364Z,98581.22
2023-03-01T22:58:49.561Z,98573.78
2023-03-01T23:01:19.006Z,98572.41
2023-03-01T23:03:47.296Z,98561.59
2023-03-01T23:06:15.841Z,98567.97
2023-03-01T23:08:43.423Z,98565.84
2023-03-01T23:11:13.923Z,98563.44
2023-03-01T23:13:41.354Z,98559.50
2023-03-01T23:16:09.536Z,98565.16
2023-03-01T23:18:37.493Z,98556.03
2023-03-01T23:21:12.948Z,98561.03
2023-03-01T23:23:40.834Z,98547.31
2023-03-01T23:26:09.025Z,98556.31
2023-03-01T23:28:41.070Z,98554.19
2023-03-01T23:31:14.325Z,98557.09
2023-03-01T23:33:44.636Z,98565.44
2023-03-01T23:36:18.841Z,98565.94
2023-03-01T23:38:51.518Z,98566.78
2023-03-01T23:41:22.487Z,98553.81
2023-03-01T23:43:52.639Z,98562.75
2023-03-01T23:46:22.050Z,98561.16
2023-03-01T23:48:49.270Z,98562.84
2023-03-01T23:51:18.180Z,98560.16
2023-03-01T23:53:54.767Z,98558.41
2023-03-01T23:56:31.579Z,98558.03
2023-03-01T23:59:01.251Z,98548.94
